KILG/ILG METAR and TAF weather

Enter ICAO airport designator
Station Type Date Time Source
KILG METAR 2024/06/16 09:51 UTC NOAA

KILG 160951Z AUTO 01007KT 10SM CLR 14/09 A3019 RMK AO2 SLP223 T01440094 $


Station Type Date Time Source
KILG Decoded METAR 2024/06/16 09:51 UTC NOAA

WILMINGTON NEW CASTLE CO, DE, United States (KILG) 39-40N 075-36W 28M
Jun 16, 2024 - 05:51 AM EDT / 2024.06.16 0951 UTC
Wind: from the N (010 degrees) at 8 MPH (7 KT):0
Visibility: 10 mile(s):0
Sky conditions: clear
Temperature: 57.9 F (14.4 C)
Dew Point: 48.9 F (9.4 C)
Relative Humidity: 71%
Pressure (altimeter): 30.19 in. Hg (1022 hPa)
ob: KILG 160951Z AUTO 01007KT 10SM CLR 14/09 A3019 RMK AO2 SLP223 T01440094
cycle: 10

Station Type Date Time Source
KILG TAF 2024/06/16 06:36 UTC NOAA